Estación Meteorológica Peña el Pijo (Robertgarden) [ 12/17/17 01:27:11 CET ]

Fecha Hora Presion(HPa) Temp (°C) Humedad % Rocio (°C) Viento ( m/s) Direccion Lluvia 1Hora(mm) Lluvia 24H(mm) LLuvia Total(mm)
2017-Oct-04 01:01:59 1015.800 16.1 72 11.1         1457.65
2017-Oct-04 02:02:01 1015.400 15.9 74 11.3         1457.65
2017-Oct-04 03:01:40 1015.600 14.9 75 10.5         1457.65
2017-Oct-04 04:01:44 1015.500 14.4 77 10.4         1457.65
2017-Oct-04 05:01:41 1015.000 13.9 80 10.5         1457.65
2017-Oct-04 06:01:43 1015.200 12.6 82 9.6         1457.65
2017-Oct-04 07:01:41 1015.100 11.6 83 8.8         1457.65
2017-Oct-04 08:01:55 1015.700 10.9 85 8.4         1457.65
2017-Oct-04 09:01:46 1016.300 10.6 85 8.1         1457.65
2017-Oct-04 10:01:51 1016.700 16.4 84 13.7         1457.65
2017-Oct-04 11:02:05 1016.900 21.4 63 14.1         1457.65
2017-Oct-04 12:01:48 1016.800 25.0 49 13.6 1.4 S     1457.65
2017-Oct-04 13:01:48 1016.600 25.6 45 12.7         1457.65
2017-Oct-04 14:01:48 1016.200 26.6 41 12.3         1457.65
2017-Oct-04 15:01:37 1016.000 27.8 39 12.6         1457.65
2017-Oct-04 16:01:56 1015.900 27.1 38 11.5 1.7 SW     1457.65
2017-Oct-04 17:01:50 1015.800 23.6 46 11.2         1457.65
2017-Oct-04 18:01:51 1015.800 24.4 46 12.0         1457.65
2017-Oct-04 19:02:07 1016.300 21.4 53 11.4 2.9 SSW     1457.65
2017-Oct-04 20:01:49 1016.600 19.1 59 10.9         1457.65
2017-Oct-04 21:02:07 1017.100 17.3 66 10.9         1457.65
2017-Oct-04 22:01:41 1017.800 16.2 72 11.2         1457.65
2017-Oct-04 23:01:43 1017.900 14.1 74 9.5         1457.65

Temperatura Máxima:27°    Temperatura Mínima:10°
Presión Máxima:1017.900 Hpa    Presión Mínima:1015.000 Hpa


Volver